Axel, Colorado
Current Conditions -  °F | °C
As of 12:53 AM on Monday 22 Dec 2014 (Local Time) from KEEO Reporting Station
Overcast Overcast  
Wind Chill: 28°   Ceiling: 4800
Heat Index: 38°   Visibility: 10mi
Dew Point: 28°   Wind: 20mph
Humidity: 68%   Direction: 300°WNW
Pressure: 29.86"   Gusts: 24mph
Location:  40.0347°N, 107.628°W
Report Text: KEEO 220753Z AUTO 30017G21KT 10SM BKN048 OVC070 03/M02 A2986 RMK AO2 SLP102 T00331022
Loading
Personal Weather Stations






























Interactive Weather Map New forecast layout! Learn more

10-Day Weather Forecast

Advertisements
Track Severe Weather on mobile